createdAt,value
2018-03-14T00:00:10.617Z,74.58
2018-03-14T00:03:34.007Z,74.66
2018-03-14T00:06:58.047Z,74.27
2018-03-14T00:10:22.083Z,74.36
2018-03-14T00:13:46.215Z,74.58
2018-03-14T00:17:10.346Z,74.89
2018-03-14T00:20:34.410Z,74.49
2018-03-14T00:23:57.753Z,74.33
2018-03-14T00:27:21.894Z,75.21
2018-03-14T00:30:45.932Z,74.52
2018-03-14T00:34:09.987Z,74.50
2018-03-14T00:37:33.336Z,74.38
2018-03-14T00:40:56.707Z,74.43
2018-03-14T00:44:20.741Z,74.14
2018-03-14T00:47:44.823Z,74.08
2018-03-14T00:51:08.106Z,73.86
2018-03-14T00:54:32.162Z,73.79
2018-03-14T00:57:55.488Z,74.42
2018-03-14T01:01:18.907Z,74.15
2018-03-14T01:04:42.244Z,74.54
2018-03-14T01:08:06.329Z,74.34
2018-03-14T01:11:30.445Z,74.44
2018-03-14T01:14:53.717Z,74.72
2018-03-14T01:18:17.040Z,74.32
2018-03-14T01:21:40.349Z,73.88
2018-03-14T01:25:03.743Z,73.43
2018-03-14T01:28:27.830Z,73.52
2018-03-14T01:31:51.910Z,73.95
2018-03-14T01:35:15.287Z,73.69
2018-03-14T01:38:38.577Z,73.65
2018-03-14T01:42:01.849Z,73.59
2018-03-14T01:45:25.128Z,73.76
2018-03-14T01:48:48.417Z,73.75
2018-03-14T01:52:12.546Z,74.07
2018-03-14T01:55:36.599Z,74.14
2018-03-14T01:59:00.671Z,74.15
2018-03-14T02:02:23.948Z,74.08
2018-03-14T02:05:48.033Z,74.75
2018-03-14T02:09:12.088Z,74.79
2018-03-14T02:12:35.364Z,74.54
2018-03-14T02:15:58.654Z,74.70
2018-03-14T02:19:22.735Z,74.66
2018-03-14T02:22:46.796Z,74.39
2018-03-14T02:26:10.056Z,75.29
2018-03-14T02:29:34.957Z,75.04
2018-03-14T02:32:58.999Z,75.16
2018-03-14T02:36:40.193Z,75.17
2018-03-14T02:40:03.467Z,74.97
2018-03-14T02:43:26.764Z,75.05
2018-03-14T02:46:50.861Z,74.80
2018-03-14T02:50:14.906Z,74.56
2018-03-14T02:53:38.945Z,74.73
2018-03-14T02:57:02.998Z,74.49
2018-03-14T03:00:26.315Z,74.07
2018-03-14T03:03:49.675Z,73.92
2018-03-14T03:07:12.944Z,73.71
2018-03-14T03:10:36.214Z,73.97
2018-03-14T03:13:59.497Z,73.88
2018-03-14T03:17:22.800Z,73.52
2018-03-14T03:20:46.089Z,73.66
2018-03-14T03:24:10.217Z,73.64
2018-03-14T03:27:33.503Z,73.52
2018-03-14T03:30:57.520Z,73.92
2018-03-14T03:34:20.893Z,74.15
2018-03-14T03:37:44.176Z,73.59
2018-03-14T03:41:08.298Z,73.78
2018-03-14T03:44:31.592Z,73.91
2018-03-14T03:47:54.934Z,73.95
2018-03-14T03:51:18.306Z,74.02
2018-03-14T03:54:41.599Z,73.94
2018-03-14T03:58:04.860Z,73.69
2018-03-14T04:01:28.894Z,73.35
2018-03-14T04:04:52.956Z,74.90
2018-03-14T04:08:16.217Z,74.93
2018-03-14T04:11:39.548Z,74.12
2018-03-14T04:15:02.921Z,74.47
2018-03-14T04:18:26.247Z,74.44
2018-03-14T04:21:50.291Z,74.97
2018-03-14T04:25:14.414Z,75.23
2018-03-14T04:28:37.701Z,75.12
2018-03-14T04:32:01.735Z,75.06
2018-03-14T04:35:25.866Z,75.08
2018-03-14T04:38:49.906Z,75.33
2018-03-14T04:42:13.963Z,73.96
2018-03-14T04:45:37.226Z,74.11
2018-03-14T04:49:00.567Z,74.76
2018-03-14T04:52:23.853Z,74.65
2018-03-14T04:55:47.918Z,74.64
2018-03-14T04:59:11.203Z,74.38
2018-03-14T05:02:35.241Z,73.74
2018-03-14T05:05:59.270Z,74.00
2018-03-14T05:09:23.318Z,73.77
2018-03-14T05:12:46.632Z,74.74
2018-03-14T05:16:10.675Z,75.21
2018-03-14T05:19:34.766Z,74.96
2018-03-14T05:22:58.116Z,74.41
2018-03-14T05:26:22.248Z,74.96
2018-03-14T05:29:45.618Z,74.72
2018-03-14T05:33:08.940Z,75.15
2018-03-14T05:36:32.214Z,74.91
2018-03-14T05:39:56.345Z,75.50
2018-03-14T05:43:20.388Z,74.88
2018-03-14T05:46:44.470Z,74.65
2018-03-14T05:50:07.782Z,75.21
2018-03-14T05:53:31.088Z,74.76
2018-03-14T05:56:54.439Z,75.17
2018-03-14T06:00:18.529Z,75.20
2018-03-14T06:03:42.574Z,75.07
2018-03-14T06:07:05.871Z,75.45
2018-03-14T06:10:29.243Z,75.47
2018-03-14T06:13:53.292Z,75.32
2018-03-14T06:17:16.642Z,75.20
2018-03-14T06:20:39.959Z,74.65
2018-03-14T06:24:03.245Z,74.38
2018-03-14T06:27:27.368Z,73.84
2018-03-14T06:30:50.646Z,73.84
2018-03-14T06:34:14.690Z,74.36
2018-03-14T06:37:38.722Z,73.06
2018-03-14T06:41:02.804Z,72.36
2018-03-14T06:44:26.897Z,72.09
2018-03-14T06:47:51.012Z,72.44
2018-03-14T06:51:14.340Z,72.38
2018-03-14T06:54:37.710Z,71.79
2018-03-14T06:58:01.079Z,71.73
2018-03-14T07:01:42.890Z,71.22
2018-03-14T07:05:24.850Z,70.69
2018-03-14T07:08:48.915Z,70.84
2018-03-14T07:12:13.287Z,71.56
2018-03-14T07:15:37.327Z,71.36
2018-03-14T07:19:00.673Z,71.38
2018-03-14T07:22:24.041Z,70.26
2018-03-14T07:25:47.426Z,69.79
2018-03-14T07:29:11.550Z,69.21
2018-03-14T07:32:34.831Z,69.69
2018-03-14T07:35:58.890Z,69.86
2018-03-14T07:39:22.244Z,69.57
2018-03-14T07:42:46.367Z,70.30
2018-03-14T07:46:15.062Z,70.51
2018-03-14T07:49:38.441Z,72.50
2018-03-14T07:53:02.565Z,71.04
2018-03-14T07:56:25.934Z,70.92
2018-03-14T07:59:50.074Z,70.90
2018-03-14T08:03:13.358Z,71.21
2018-03-14T08:06:37.481Z,70.81
2018-03-14T08:10:00.954Z,71.06
2018-03-14T08:13:24.365Z,69.99
2018-03-14T08:16:47.667Z,69.99
2018-03-14T08:20:10.945Z,69.95
2018-03-14T08:23:34.250Z,69.66
2018-03-14T08:26:57.600Z,69.40
2018-03-14T08:30:20.974Z,69.94
2018-03-14T08:33:45.024Z,69.44
2018-03-14T08:37:08.317Z,67.80
2018-03-14T08:40:31.612Z,67.68
2018-03-14T08:43:55.669Z,67.40
2018-03-14T08:47:18.952Z,67.05
2018-03-14T08:50:42.996Z,67.68
2018-03-14T08:54:07.127Z,65.95
2018-03-14T08:57:31.300Z,66.65
2018-03-14T09:00:54.551Z,66.37
2018-03-14T09:04:17.859Z,65.45
2018-03-14T09:07:42.054Z,64.19
2018-03-14T09:11:06.145Z,62.68
2018-03-14T09:14:30.933Z,63.30
2018-03-14T09:17:54.985Z,62.98
2018-03-14T09:21:18.295Z,61.49
2018-03-14T09:24:42.373Z,61.81
2018-03-14T09:28:06.665Z,62.04
2018-03-14T09:31:29.968Z,61.22
2018-03-14T09:34:53.522Z,60.60
2018-03-14T09:38:17.644Z,59.90
2018-03-14T09:41:41.014Z,58.67
2018-03-14T09:45:04.504Z,56.80
2018-03-14T09:48:27.928Z,57.86
2018-03-14T09:51:52.222Z,56.68
2018-03-14T09:55:16.303Z,56.37
2018-03-14T09:58:40.530Z,56.77
2018-03-14T10:02:03.935Z,54.40
2018-03-14T10:05:27.230Z,55.64
2018-03-14T10:08:55.414Z,55.38
2018-03-14T10:12:20.052Z,54.70
2018-03-14T10:15:43.784Z,53.41
2018-03-14T10:19:23.217Z,52.55
2018-03-14T10:23:02.737Z,54.62
2018-03-14T10:26:26.916Z,53.15
2018-03-14T10:29:50.981Z,53.70
2018-03-14T10:33:14.262Z,52.92
2018-03-14T10:36:37.551Z,53.95
2018-03-14T10:40:01.611Z,53.09
2018-03-14T10:43:24.984Z,51.43
2018-03-14T10:46:48.312Z,49.43
2018-03-14T10:50:11.620Z,48.00
2018-03-14T10:53:35.005Z,45.67
2018-03-14T10:56:58.356Z,45.91
2018-03-14T11:00:26.814Z,43.83
2018-03-14T11:03:51.797Z,42.98
2018-03-14T11:07:15.078Z,43.61
2018-03-14T11:10:38.510Z,43.61
2018-03-14T11:14:01.878Z,43.94
2018-03-14T11:17:25.251Z,42.97
2018-03-14T11:20:49.312Z,42.74
2018-03-14T11:24:12.609Z,41.93
2018-03-14T11:27:35.940Z,39.99
2018-03-14T11:30:59.981Z,38.99
2018-03-14T11:34:24.582Z,39.10
2018-03-14T11:37:48.703Z,40.18
2018-03-14T11:41:12.066Z,39.79
2018-03-14T11:44:35.697Z,38.00
2018-03-14T11:48:00.008Z,37.04
2018-03-14T11:51:25.175Z,37.79
2018-03-14T11:54:48.990Z,38.49
2018-03-14T11:58:13.088Z,38.41
2018-03-14T12:01:37.180Z,38.50
2018-03-14T12:05:00.468Z,38.28
2018-03-14T12:08:23.777Z,39.75
2018-03-14T12:11:47.092Z,39.27
2018-03-14T12:15:10.412Z,38.10
2018-03-14T12:18:33.728Z,38.01
2018-03-14T12:21:57.072Z,38.09
2018-03-14T12:25:20.475Z,37.93
2018-03-14T12:28:43.734Z,38.04
2018-03-14T12:32:07.050Z,37.55
2018-03-14T12:35:30.398Z,37.68
2018-03-14T12:38:54.462Z,37.49
2018-03-14T12:42:17.746Z,38.27
2018-03-14T12:45:41.071Z,37.76
2018-03-14T12:49:04.394Z,37.69
2018-03-14T12:52:28.434Z,37.46
2018-03-14T12:55:52.495Z,36.91
2018-03-14T12:59:15.780Z,37.11
2018-03-14T13:02:39.130Z,37.98
2018-03-14T13:06:02.424Z,38.04
2018-03-14T13:09:26.478Z,36.77
2018-03-14T13:12:50.548Z,35.93
2018-03-14T13:16:14.630Z,35.42
2018-03-14T13:19:37.999Z,35.32
2018-03-14T13:23:01.280Z,35.82
2018-03-14T13:26:25.345Z,36.23
2018-03-14T13:29:48.777Z,36.05
2018-03-14T13:33:12.056Z,36.37
2018-03-14T13:36:36.104Z,36.27
2018-03-14T13:39:59.507Z,35.60
2018-03-14T13:43:23.643Z,35.44
2018-03-14T13:46:46.914Z,35.54
2018-03-14T13:50:12.021Z,35.15
2018-03-14T13:53:35.415Z,35.86
2018-03-14T13:56:59.466Z,35.73
2018-03-14T14:00:22.746Z,35.78
2018-03-14T14:03:46.786Z,35.74
2018-03-14T14:07:10.916Z,35.91
2018-03-14T14:10:34.184Z,37.15
2018-03-14T14:13:57.472Z,36.25
2018-03-14T14:17:21.504Z,36.64
2018-03-14T14:20:45.586Z,36.34
2018-03-14T14:24:09.717Z,36.37
2018-03-14T14:27:33.190Z,36.61
2018-03-14T14:30:56.496Z,37.02
2018-03-14T14:34:19.785Z,36.59
2018-03-14T14:37:43.864Z,37.21
2018-03-14T14:41:07.226Z,36.57
2018-03-14T14:44:30.553Z,36.67
2018-03-14T14:47:53.844Z,36.68
2018-03-14T14:51:17.122Z,36.10
2018-03-14T14:54:40.426Z,37.11
2018-03-14T14:58:04.471Z,37.85
2018-03-14T15:01:27.761Z,37.26
2018-03-14T15:04:51.113Z,36.98
2018-03-14T15:08:14.392Z,37.22
2018-03-14T15:11:37.726Z,36.74
2018-03-14T15:15:01.778Z,37.65
2018-03-14T15:18:25.067Z,37.31
2018-03-14T15:21:48.360Z,36.83
2018-03-14T15:25:12.482Z,37.09
2018-03-14T15:28:35.856Z,36.89
2018-03-14T15:31:59.915Z,37.97
2018-03-14T15:35:23.258Z,38.02
2018-03-14T15:38:46.547Z,38.51
2018-03-14T15:42:09.846Z,38.10
2018-03-14T15:45:33.906Z,37.13
2018-03-14T15:48:57.184Z,37.20
2018-03-14T15:52:20.518Z,37.00
2018-03-14T15:55:44.564Z,37.46
2018-03-14T15:59:08.673Z,37.38
2018-03-14T16:02:31.956Z,39.34
2018-03-14T16:05:56.037Z,39.82
2018-03-14T16:09:19.341Z,40.94
2018-03-14T16:12:42.701Z,41.58
2018-03-14T16:16:06.753Z,41.86
2018-03-14T16:19:30.099Z,42.28
2018-03-14T16:22:54.155Z,43.07
2018-03-14T16:26:17.433Z,43.53
2018-03-14T16:29:40.779Z,43.76
2018-03-14T16:33:16.312Z,44.62
2018-03-14T16:36:39.791Z,45.01
2018-03-14T16:40:03.255Z,45.83
2018-03-14T16:43:26.572Z,46.46
2018-03-14T16:46:50.007Z,46.66
2018-03-14T16:50:13.383Z,46.98
2018-03-14T16:53:37.479Z,47.44
2018-03-14T16:57:00.822Z,47.68
2018-03-14T17:00:24.152Z,48.00
2018-03-14T17:03:47.636Z,48.46
2018-03-14T17:07:11.842Z,48.64
2018-03-14T17:10:36.425Z,48.61
2018-03-14T17:14:00.518Z,48.53
2018-03-14T17:17:24.306Z,49.22
2018-03-14T17:20:48.421Z,49.36
2018-03-14T17:24:11.759Z,49.92
2018-03-14T17:27:35.849Z,49.98
2018-03-14T17:30:59.946Z,50.08
2018-03-14T17:34:23.233Z,49.78
2018-03-14T17:37:46.655Z,50.06
2018-03-14T17:41:10.955Z,49.98
2018-03-14T17:44:34.822Z,49.78
2018-03-14T17:47:59.204Z,50.05
2018-03-14T17:52:17.334Z,50.87
2018-03-14T17:55:41.434Z,50.12
2018-03-14T17:59:04.718Z,50.35
2018-03-14T18:02:28.150Z,50.03
2018-03-14T18:05:52.482Z,50.53
2018-03-14T18:09:15.785Z,50.66
2018-03-14T18:12:39.062Z,50.49
2018-03-14T18:16:02.370Z,50.17
2018-03-14T18:19:26.455Z,50.29
2018-03-14T18:22:49.754Z,50.71
2018-03-14T18:26:13.076Z,50.37
2018-03-14T18:29:36.398Z,52.76
2018-03-14T18:33:00.503Z,54.57
2018-03-14T18:36:23.848Z,54.65
2018-03-14T18:39:47.180Z,54.64
2018-03-14T18:43:11.226Z,55.45
2018-03-14T18:46:34.533Z,54.73
2018-03-14T18:49:58.613Z,56.14
2018-03-14T18:53:21.939Z,54.58
2018-03-14T18:56:46.004Z,57.58
2018-03-14T19:00:09.323Z,56.00
2018-03-14T19:03:32.625Z,57.13
2018-03-14T19:06:56.066Z,56.02
2018-03-14T19:10:19.437Z,55.36
2018-03-14T19:13:42.802Z,54.73
2018-03-14T19:17:06.105Z,54.00
2018-03-14T19:20:29.452Z,53.88
2018-03-14T19:23:53.544Z,53.83
2018-03-14T19:27:17.606Z,54.73
2018-03-14T19:30:40.928Z,55.58
2018-03-14T19:34:05.002Z,56.56
2018-03-14T19:37:29.096Z,57.13
2018-03-14T19:40:52.456Z,57.64
2018-03-14T19:44:16.635Z,58.35
2018-03-14T19:47:39.958Z,59.16
2018-03-14T19:51:04.012Z,59.82
2018-03-14T19:54:27.330Z,60.11
2018-03-14T19:57:50.683Z,60.36
2018-03-14T20:01:14.794Z,60.66
2018-03-14T20:04:39.102Z,60.86
2018-03-14T20:08:02.490Z,60.90
2018-03-14T20:11:26.603Z,61.14
2018-03-14T20:14:49.938Z,61.39
2018-03-14T20:18:14.172Z,61.24
2018-03-14T20:21:37.486Z,61.58
2018-03-14T20:25:00.866Z,64.63
2018-03-14T20:28:24.192Z,65.64
2018-03-14T20:31:48.273Z,62.23
2018-03-14T20:35:12.342Z,62.77
2018-03-14T20:38:35.726Z,62.85
2018-03-14T20:41:59.796Z,63.58
2018-03-14T20:45:23.184Z,63.98
2018-03-14T20:48:46.480Z,63.75
2018-03-14T20:52:09.756Z,64.21
2018-03-14T20:55:33.039Z,64.46
2018-03-14T20:58:56.374Z,64.75
2018-03-14T21:02:20.568Z,65.16
2018-03-14T21:05:43.845Z,65.14
2018-03-14T21:09:07.152Z,65.57
2018-03-14T21:12:31.216Z,65.83
2018-03-14T21:15:54.558Z,66.29
2018-03-14T21:19:18.620Z,66.64
2018-03-14T21:22:41.957Z,66.98
2018-03-14T21:26:06.047Z,67.23
2018-03-14T21:29:30.088Z,67.20
2018-03-14T21:32:54.173Z,67.28
2018-03-14T21:36:18.298Z,67.74
2018-03-14T21:39:42.300Z,67.82
2018-03-14T21:43:06.398Z,67.58
2018-03-14T21:46:29.726Z,68.09
2018-03-14T21:49:53.029Z,67.99
2018-03-14T21:53:16.332Z,68.37
2018-03-14T21:56:40.414Z,68.67
2018-03-14T22:00:04.502Z,69.35
2018-03-14T22:03:28.619Z,69.58
2018-03-14T22:06:52.006Z,71.49
2018-03-14T22:10:15.344Z,72.12
2018-03-14T22:13:39.416Z,71.30
2018-03-14T22:17:03.563Z,71.67
2018-03-14T22:20:27.614Z,71.11
2018-03-14T22:23:50.920Z,71.62
2018-03-14T22:27:15.112Z,72.23
2018-03-14T22:30:39.223Z,73.15
2018-03-14T22:34:02.475Z,72.41
2018-03-14T22:37:25.766Z,72.44
2018-03-14T22:40:49.138Z,71.98
2018-03-14T22:44:12.565Z,71.44
2018-03-14T22:47:36.634Z,73.03
2018-03-14T22:51:00.070Z,72.95
2018-03-14T22:54:23.506Z,71.65
2018-03-14T22:57:47.573Z,71.77
2018-03-14T23:01:10.920Z,72.09
2018-03-14T23:04:35.009Z,72.34
2018-03-14T23:07:59.050Z,70.33
2018-03-14T23:11:22.326Z,69.87
2018-03-14T23:14:45.590Z,68.52
2018-03-14T23:18:08.857Z,64.96
2018-03-14T23:21:32.194Z,64.49
2018-03-14T23:24:55.570Z,64.62
2018-03-14T23:28:19.610Z,63.79
2018-03-14T23:31:43.665Z,64.42
2018-03-14T23:35:07.074Z,64.22
2018-03-14T23:38:31.165Z,64.55
2018-03-14T23:41:55.256Z,64.94
2018-03-14T23:45:19.316Z,65.82
2018-03-14T23:48:42.667Z,66.47
2018-03-14T23:52:05.995Z,67.27
2018-03-14T23:55:29.266Z,67.82
2018-03-14T23:58:52.541Z,67.53
